Time;durP1;ratioP1;P1;durP2;ratioP2;P2;SDS_P1;SDS_P2;PMS_P1;PMS_P2;Temp;Humidity;BMP_temperature;BMP_pressure;BME280_temperature;BME280_humidity;BME280_pressure;Samples;Min_cycle;Max_cycle;Signal;HPM_P1;HPM_P2
2021/08/15 00:00:54;;;;;;;12.33;10.00;;;26.70;99.90;;;;;;5005771;28;20209;-72
2021/08/15 00:03:20;;;;;;;11.93;10.73;;;26.80;99.90;;;;;;5003086;28;20187;-72
2021/08/15 00:05:46;;;;;;;11.77;10.57;;;26.80;99.90;;;;;;4986595;28;20181;-72
2021/08/15 00:08:12;;;;;;;12.50;11.20;;;26.60;99.90;;;;;;4989684;28;20452;-72
2021/08/15 00:10:38;;;;;;;10.97;9.87;;;26.70;99.90;;;;;;5003580;28;20497;-72
2021/08/15 00:13:06;;;;;;;12.33;11.03;;;26.60;99.90;;;;;;5006814;28;20624;-72
2021/08/15 00:15:32;;;;;;;13.53;12.13;;;26.50;99.90;;;;;;5005229;28;21026;-72
2021/08/15 00:17:57;;;;;;;13.27;11.80;;;26.50;99.90;;;;;;5003886;28;20452;-72
2021/08/15 00:20:23;;;;;;;13.47;10.53;;;26.50;99.90;;;;;;5018795;28;20211;-72
2021/08/15 00:22:49;;;;;;;13.67;11.47;;;26.40;99.90;;;;;;5002695;28;20193;-72
2021/08/15 00:25:16;;;;;;;14.00;10.93;;;26.50;99.90;;;;;;5003923;28;20196;-72
2021/08/15 00:27:43;;;;;;;15.57;11.67;;;26.40;99.90;;;;;;5006983;28;20186;-72
2021/08/15 00:30:10;;;;;;;11.70;10.50;;;26.40;99.90;;;;;;5001577;28;20809;-72
2021/08/15 00:32:37;;;;;;;12.33;11.07;;;26.30;99.90;;;;;;5005128;28;20634;-72
2021/08/15 00:35:07;;;;;;;14.33;12.23;;;26.30;99.90;;;;;;5005495;28;20486;-72
2021/08/15 00:37:32;;;;;;;15.17;11.77;;;26.50;99.90;;;;;;5001986;28;20428;-72
2021/08/15 00:39:58;;;;;;;13.27;11.97;;;26.50;99.90;;;;;;5003128;28;20956;-72
2021/08/15 00:42:25;;;;;;;13.73;12.33;;;26.40;99.90;;;;;;5003934;28;20546;-72
2021/08/15 00:44:51;;;;;;;14.07;12.53;;;26.30;99.90;;;;;;5003193;28;20197;-72
2021/08/15 00:47:17;;;;;;;13.37;12.07;;;26.10;99.90;;;;;;5005549;28;20444;-72
2021/08/15 00:49:43;;;;;;;12.90;11.60;;;26.20;99.90;;;;;;5001455;28;20467;-72
2021/08/15 00:52:11;;;;;;;13.93;12.20;;;26.20;99.90;;;;;;5004809;28;20201;-72
2021/08/15 00:54:39;;;;;;;15.80;11.13;;;26.20;99.90;;;;;;5005231;28;20288;-72
2021/08/15 00:57:08;;;;;;;12.87;11.50;;;26.10;99.90;;;;;;5001618;28;20452;-72
2021/08/15 00:59:42;;;;;;;15.57;12.07;;;25.90;99.90;;;;;;5004972;28;21096;-72
2021/08/15 01:02:07;;;;;;;12.87;11.47;;;26.10;99.90;;;;;;5003999;28;21095;-72
2021/08/15 01:04:36;;;;;;;11.17;10.17;;;26.10;99.90;;;;;;4984909;28;20567;-66
2021/08/15 01:07:05;;;;;;;11.43;10.33;;;26.10;99.90;;;;;;5005183;28;20492;-66
2021/08/15 01:09:32;;;;;;;13.13;10.80;;;26.10;99.90;;;;;;5003478;28;20829;-65
2021/08/15 01:11:59;;;;;;;12.17;11.07;;;26.00;99.90;;;;;;5003879;28;20458;-66
2021/08/15 01:14:25;;;;;;;11.70;10.50;;;26.00;99.90;;;;;;5006396;28;20479;-65
2021/08/15 01:16:50;;;;;;;12.30;10.90;;;25.90;99.90;;;;;;5003132;28;20919;-65
2021/08/15 01:19:16;;;;;;;12.07;10.70;;;25.90;99.90;;;;;;5003670;28;20292;-65
2021/08/15 01:21:43;;;;;;;12.70;11.40;;;25.90;99.90;;;;;;5004323;28;20181;-67
2021/08/15 01:24:09;;;;;;;11.53;10.30;;;25.90;99.90;;;;;;5002300;28;20243;-65
2021/08/15 01:26:34;;;;;;;12.17;10.60;;;25.80;99.90;;;;;;5003365;28;20436;-66
2021/08/15 01:29:00;;;;;;;12.07;10.73;;;25.50;99.90;;;;;;5003191;28;20220;-66
2021/08/15 01:31:27;;;;;;;11.70;10.50;;;25.60;99.90;;;;;;5000371;28;20208;-66
2021/08/15 01:33:52;;;;;;;12.43;11.13;;;25.70;99.90;;;;;;5003624;28;20507;-66
2021/08/15 01:36:20;;;;;;;11.53;10.33;;;25.70;99.90;;;;;;5004207;28;20526;-66
2021/08/15 01:38:48;;;;;;;11.10;10.07;;;25.60;99.90;;;;;;5001910;28;20213;-67
2021/08/15 01:41:14;;;;;;;13.10;11.10;;;25.30;99.90;;;;;;5001310;28;20440;-66
2021/08/15 01:44:00;;;;;;;12.27;11.03;;;25.30;99.90;;;;;;5002474;28;20516;-65
2021/08/15 01:46:28;;;;;;;11.70;10.50;;;25.10;99.90;;;;;;5007040;28;20427;-66
2021/08/15 01:48:55;;;;;;;13.03;11.73;;;25.20;99.90;;;;;;5007806;28;20956;-66
2021/08/15 01:51:21;;;;;;;12.43;10.37;;;25.30;99.90;;;;;;5008630;28;20797;-66
2021/08/15 01:53:50;;;;;;;10.93;9.87;;;25.40;99.90;;;;;;5008558;28;20436;-66
2021/08/15 01:56:16;;;;;;;18.23;11.53;;;25.40;99.90;;;;;;5008350;28;20415;-66
2021/08/15 01:58:42;;;;;;;12.30;11.00;;;25.20;99.90;;;;;;5007273;28;20471;-67
2021/08/15 02:01:07;;;;;;;17.63;11.43;;;25.10;99.90;;;;;;5008136;28;20499;-65
2021/08/15 02:03:34;;;;;;;13.27;10.70;;;25.20;99.90;;;;;;5006472;28;20193;-66
2021/08/15 02:06:00;;;;;;;12.50;11.20;;;25.00;99.90;;;;;;5005142;28;20863;-65
2021/08/15 02:08:25;;;;;;;12.67;10.03;;;25.00;99.90;;;;;;5008776;28;20531;-65
2021/08/15 02:10:51;;;;;;;12.33;11.07;;;25.00;99.90;;;;;;5004411;28;20429;-65
2021/08/15 02:13:17;;;;;;;11.60;9.83;;;24.90;99.90;;;;;;5007289;28;20841;-66
2021/08/15 02:15:43;;;;;;;12.57;9.80;;;25.00;99.90;;;;;;5006639;28;20694;-67
2021/08/15 02:18:08;;;;;;;11.90;10.47;;;25.00;99.90;;;;;;5005498;28;20209;-66
2021/08/15 02:20:35;;;;;;;10.83;9.83;;;24.90;99.90;;;;;;5008858;28;20208;-66
2021/08/15 02:23:02;;;;;;;10.40;9.40;;;24.90;99.90;;;;;;5006127;28;20312;-66
2021/08/15 02:25:28;;;;;;;11.10;9.60;;;24.80;99.90;;;;;;5005285;28;20437;-66
2021/08/15 02:27:57;;;;;;;11.53;10.43;;;24.70;99.90;;;;;;5007421;28;20432;-66
2021/08/15 02:30:24;;;;;;;10.37;9.37;;;24.70;99.90;;;;;;5019338;28;20448;-66
2021/08/15 02:32:51;;;;;;;10.50;9.40;;;24.60;99.90;;;;;;5005220;28;20455;-66
2021/08/15 02:35:17;;;;;;;10.63;9.53;;;24.70;99.90;;;;;;5006449;28;20476;-66
2021/08/15 02:37:46;;;;;;;11.00;10.00;;;24.60;99.90;;;;;;5005004;28;20502;-65
2021/08/15 02:40:14;;;;;;;10.53;9.53;;;24.60;99.90;;;;;;5004894;28;20455;-66
2021/08/15 02:42:42;;;;;;;10.13;9.23;;;24.80;99.90;;;;;;5003967;28;20428;-66
2021/08/15 02:45:10;;;;;;;11.10;9.97;;;24.80;99.90;;;;;;5007083;28;20903;-66
2021/08/15 02:47:36;;;;;;;11.13;9.90;;;24.80;99.90;;;;;;5007379;28;20562;-66
2021/08/15 02:50:01;;;;;;;13.17;9.60;;;24.80;99.90;;;;;;5010493;28;20603;-65
2021/08/15 02:52:27;;;;;;;11.23;10.07;;;24.70;99.90;;;;;;5007234;28;20213;-65
2021/08/15 02:54:53;;;;;;;10.53;9.43;;;24.70;99.90;;;;;;5005726;28;20687;-66
2021/08/15 02:57:23;;;;;;;9.60;8.60;;;24.70;99.90;;;;;;5001349;28;20792;-65
2021/08/15 02:59:49;;;;;;;10.90;9.80;;;24.70;99.90;;;;;;5006978;28;20574;-65
2021/08/15 03:02:16;;;;;;;12.47;10.23;;;24.70;99.90;;;;;;5007230;28;20731;-66
2021/08/15 03:04:42;;;;;;;11.30;10.10;;;24.60;99.90;;;;;;5005281;28;20718;-65
2021/08/15 03:07:08;;;;;;;12.70;10.50;;;24.50;99.90;;;;;;5004338;28;20574;-65
2021/08/15 03:09:37;;;;;;;13.47;9.20;;;24.50;99.90;;;;;;5006750;28;20543;-66
2021/08/15 03:12:03;;;;;;;9.63;8.63;;;24.40;99.90;;;;;;5005958;28;20220;-66
2021/08/15 03:14:29;;;;;;;11.57;10.37;;;24.50;99.90;;;;;;5006658;28;20832;-66
2021/08/15 03:16:55;;;;;;;10.60;9.60;;;24.50;99.90;;;;;;5005724;28;20497;-68
2021/08/15 03:19:21;;;;;;;12.10;10.30;;;24.50;99.90;;;;;;5003853;28;20312;-65
2021/08/15 03:21:47;;;;;;;11.37;9.23;;;24.50;99.90;;;;;;5004303;28;20181;-65
2021/08/15 03:24:13;;;;;;;10.10;9.10;;;24.40;99.90;;;;;;5006473;28;21004;-65
2021/08/15 03:26:41;;;;;;;10.50;9.40;;;24.40;99.90;;;;;;5003318;28;20239;-65
2021/08/15 03:29:07;;;;;;;10.17;9.20;;;24.40;99.90;;;;;;5004482;28;20981;-65
2021/08/15 03:31:33;;;;;;;10.33;9.23;;;24.40;99.90;;;;;;5005740;28;20433;-65
2021/08/15 03:33:59;;;;;;;10.23;8.00;;;24.20;99.90;;;;;;5002512;28;20559;-65
2021/08/15 03:36:24;;;;;;;9.60;8.70;;;24.30;99.90;;;;;;5007348;28;20430;-65
2021/08/15 03:38:50;;;;;;;12.50;9.87;;;24.20;99.90;;;;;;5003725;28;20216;-65
2021/08/15 03:41:16;;;;;;;10.90;9.60;;;24.20;99.90;;;;;;5005426;28;20456;-65
2021/08/15 03:43:41;;;;;;;10.40;9.00;;;24.20;99.90;;;;;;5004973;28;20263;-65
2021/08/15 03:46:07;;;;;;;11.20;9.87;;;24.20;99.90;;;;;;5004378;28;20260;-65
2021/08/15 03:48:33;;;;;;;10.80;9.70;;;24.10;99.90;;;;;;5005321;28;20217;-65
2021/08/15 03:51:01;;;;;;;12.00;10.03;;;24.10;99.90;;;;;;5005491;28;20189;-66
2021/08/15 03:53:27;;;;;;;10.23;9.23;;;24.10;99.90;;;;;;5002994;28;20283;-66
2021/08/15 03:55:53;;;;;;;13.00;9.33;;;24.00;99.90;;;;;;5007013;28;20651;-67
2021/08/15 03:58:18;;;;;;;11.30;9.10;;;24.10;99.90;;;;;;5002789;28;20307;-67
2021/08/15 04:00:44;;;;;;;11.00;9.67;;;24.10;99.90;;;;;;5005070;28;20200;-67
2021/08/15 04:03:11;;;;;;;10.40;9.37;;;24.00;99.90;;;;;;5007758;28;20177;-67
2021/08/15 04:05:38;;;;;;;10.70;8.97;;;24.10;99.90;;;;;;5001197;28;20609;-67
2021/08/15 04:08:07;;;;;;;9.80;8.90;;;24.00;99.90;;;;;;5003422;28;20467;-66
2021/08/15 04:10:33;;;;;;;10.00;8.47;;;23.90;99.90;;;;;;5003532;28;20409;-67
2021/08/15 04:12:59;;;;;;;11.40;9.80;;;24.00;99.90;;;;;;5003496;28;20424;-67
2021/08/15 04:15:26;;;;;;;12.83;9.93;;;23.90;99.90;;;;;;5003784;28;20449;-67
2021/08/15 04:17:51;;;;;;;9.87;8.50;;;23.90;99.90;;;;;;5003549;28;20635;-67
2021/08/15 04:20:17;;;;;;;12.47;9.27;;;24.00;99.90;;;;;;5004022;28;20470;-67
2021/08/15 04:22:43;;;;;;;12.00;8.40;;;23.80;99.90;;;;;;5006370;28;20181;-67
2021/08/15 04:25:09;;;;;;;10.57;8.30;;;23.90;99.90;;;;;;5003385;28;20440;-67
2021/08/15 04:27:35;;;;;;;9.00;7.57;;;23.80;99.90;;;;;;5003771;28;20205;-67
2021/08/15 04:30:01;;;;;;;9.03;8.07;;;23.80;99.90;;;;;;5005973;28;20989;-67
2021/08/15 04:32:27;;;;;;;8.47;7.43;;;23.80;99.90;;;;;;5002477;28;20576;-67
2021/08/15 04:34:53;;;;;;;11.27;7.83;;;23.70;99.90;;;;;;5001319;28;20460;-67
2021/08/15 04:37:20;;;;;;;10.23;7.80;;;23.90;99.90;;;;;;5004172;28;20236;-66
2021/08/15 04:39:45;;;;;;;12.33;7.77;;;23.70;99.90;;;;;;5003803;28;20566;-66
2021/08/15 04:42:11;;;;;;;8.67;7.77;;;23.80;99.90;;;;;;5017442;28;20500;-66
2021/08/15 04:44:38;;;;;;;11.07;6.70;;;23.80;99.90;;;;;;5015353;28;20759;-66
2021/08/15 04:47:04;;;;;;;10.47;7.87;;;23.90;99.90;;;;;;5003105;28;20856;-66
2021/08/15 04:49:30;;;;;;;8.83;6.33;;;23.80;99.90;;;;;;5005918;28;20440;-66
2021/08/15 04:51:55;;;;;;;9.90;6.90;;;23.50;99.90;;;;;;5000754;28;21214;-65
2021/08/15 04:54:27;;;;;;;9.87;6.63;;;23.60;99.90;;;;;;5006067;28;20451;-67
2021/08/15 04:56:53;;;;;;;7.90;6.43;;;23.40;99.90;;;;;;5004387;28;20203;-67
2021/08/15 04:59:19;;;;;;;13.60;7.10;;;23.50;99.90;;;;;;5003200;28;20910;-67
2021/08/15 05:01:45;;;;;;;8.27;5.83;;;23.50;99.90;;;;;;5004766;28;20534;-67
2021/08/15 05:04:11;;;;;;;10.50;7.13;;;23.50;99.90;;;;;;4987705;28;20185;-67
2021/08/15 05:06:39;;;;;;;7.53;6.13;;;23.50;99.90;;;;;;5004019;28;20463;-67
2021/08/15 05:09:05;;;;;;;8.47;6.50;;;23.60;99.90;;;;;;5004430;28;20204;-67
2021/08/15 05:11:31;;;;;;;8.63;6.67;;;23.60;99.90;;;;;;5001859;28;20976;-66
2021/08/15 05:13:57;;;;;;;8.20;6.80;;;23.70;99.90;;;;;;5005853;28;20646;-66
2021/08/15 05:16:23;;;;;;;12.23;6.60;;;23.50;99.90;;;;;;5003370;28;20280;-66
2021/08/15 05:18:49;;;;;;;11.87;7.20;;;23.50;99.90;;;;;;5002323;28;20209;-66
2021/08/15 05:21:15;;;;;;;11.10;6.80;;;23.60;99.90;;;;;;5008399;28;21037;-66
2021/08/15 05:23:41;;;;;;;10.97;6.13;;;23.50;99.90;;;;;;5008338;28;20435;-66
2021/08/15 05:26:06;;;;;;;9.57;6.50;;;23.70;99.90;;;;;;5005999;28;20224;-66
2021/08/15 05:28:32;;;;;;;6.60;5.90;;;23.70;99.90;;;;;;5007998;28;20266;-66
2021/08/15 05:30:58;;;;;;;8.80;6.83;;;23.70;99.90;;;;;;5006550;28;20684;-70
2021/08/15 05:33:25;;;;;;;10.13;7.10;;;23.80;99.90;;;;;;5006854;28;20476;-70
2021/08/15 05:35:51;;;;;;;9.63;6.77;;;23.70;99.90;;;;;;5005578;28;20193;-70
2021/08/15 05:38:16;;;;;;;9.23;6.90;;;23.50;99.90;;;;;;5006684;28;20471;-70
2021/08/15 05:40:42;;;;;;;8.03;7.23;;;23.50;99.90;;;;;;5008587;28;20185;-70
2021/08/15 05:43:08;;;;;;;9.50;6.90;;;23.60;99.90;;;;;;5005829;28;20227;-70
2021/08/15 05:45:34;;;;;;;8.03;7.10;;;23.50;99.90;;;;;;5007913;28;20509;-70
2021/08/15 05:47:59;;;;;;;7.20;6.50;;;23.50;99.90;;;;;;5006885;28;20644;-70
2021/08/15 05:50:28;;;;;;;11.17;6.73;;;23.40;99.90;;;;;;5006998;28;20268;-70
2021/08/15 05:52:54;;;;;;;7.30;6.53;;;23.50;99.90;;;;;;5008460;28;20208;-70
2021/08/15 05:55:20;;;;;;;8.63;6.17;;;23.70;99.90;;;;;;5005872;28;20974;-70
2021/08/15 05:57:45;;;;;;;8.23;7.10;;;23.70;99.90;;;;;;5007245;28;20201;-69
2021/08/15 06:00:11;;;;;;;7.53;6.73;;;23.60;99.90;;;;;;4989919;28;20468;-69
2021/08/15 06:02:37;;;;;;;8.43;6.67;;;23.70;99.90;;;;;;5005139;28;20192;-70
2021/08/15 06:05:03;;;;;;;7.70;6.90;;;23.70;99.90;;;;;;5007039;28;20543;-70
2021/08/15 06:07:29;;;;;;;7.07;6.37;;;23.60;99.90;;;;;;5008447;28;20510;-70
2021/08/15 06:09:55;;;;;;;8.20;7.40;;;23.40;99.90;;;;;;5004414;28;20834;-70
2021/08/15 06:12:20;;;;;;;12.53;7.23;;;23.60;99.90;;;;;;5007128;28;20284;-70
2021/08/15 06:14:46;;;;;;;10.60;7.43;;;23.60;99.90;;;;;;5006819;28;20640;-70
2021/08/15 06:17:12;;;;;;;9.93;6.87;;;23.50;99.90;;;;;;5004874;28;20208;-70
2021/08/15 06:19:38;;;;;;;12.30;7.53;;;23.60;99.90;;;;;;5007947;28;20208;-69
2021/08/15 06:22:04;;;;;;;10.97;7.53;;;23.70;99.90;;;;;;5006510;28;20447;-70
2021/08/15 06:24:29;;;;;;;9.67;8.17;;;23.80;99.90;;;;;;5006400;28;20256;-70
2021/08/15 06:26:56;;;;;;;8.20;7.03;;;23.80;99.90;;;;;;5006463;28;20721;-70
2021/08/15 06:29:22;;;;;;;8.70;7.90;;;23.80;99.90;;;;;;5006210;28;20259;-70
2021/08/15 06:31:47;;;;;;;9.93;7.50;;;23.80;99.90;;;;;;5007926;28;20436;-70
2021/08/15 06:34:15;;;;;;;12.30;8.87;;;23.80;99.90;;;;;;5007031;28;20657;-70
2021/08/15 06:36:41;;;;;;;9.87;7.60;;;23.90;99.90;;;;;;5004041;28;20272;-70
2021/08/15 06:39:07;;;;;;;9.07;7.93;;;23.90;99.90;;;;;;5023332;28;20550;-69
2021/08/15 06:41:33;;;;;;;9.73;7.67;;;23.80;99.90;;;;;;5005117;28;20218;-70
2021/08/15 06:43:59;;;;;;;10.20;7.67;;;23.90;99.90;;;;;;5005991;28;20185;-71
2021/08/15 06:46:24;;;;;;;10.33;8.47;;;24.00;99.90;;;;;;5006015;28;20447;-70
2021/08/15 06:48:50;;;;;;;11.27;8.97;;;23.90;99.90;;;;;;5005131;28;20213;-71
2021/08/15 06:51:16;;;;;;;11.63;8.13;;;24.00;99.90;;;;;;5007129;28;20197;-71
2021/08/15 06:53:42;;;;;;;9.27;7.93;;;24.20;99.90;;;;;;5005569;28;20464;-70
2021/08/15 06:56:09;;;;;;;10.93;7.57;;;24.10;99.90;;;;;;5007615;28;20197;-70
2021/08/15 06:58:36;;;;;;;9.03;7.83;;;24.10;99.90;;;;;;5007867;28;20288;-70
2021/08/15 07:01:02;;;;;;;13.60;8.07;;;24.10;99.90;;;;;;5004108;28;20450;-70
2021/08/15 07:03:28;;;;;;;10.03;8.80;;;24.10;99.90;;;;;;5007191;28;20942;-70
2021/08/15 07:05:54;;;;;;;13.83;8.50;;;24.20;99.90;;;;;;5007143;28;20432;-70
2021/08/15 07:08:20;;;;;;;9.67;8.37;;;24.20;99.90;;;;;;5003467;28;20211;-70
2021/08/15 07:10:45;;;;;;;9.53;8.13;;;24.10;99.90;;;;;;5006709;28;20185;-70
2021/08/15 07:13:22;;;;;;;10.23;9.07;;;24.30;99.90;;;;;;5005714;28;20194;-69
2021/08/15 07:15:49;;;;;;;8.17;7.37;;;24.30;99.90;;;;;;5004406;28;20235;-70
2021/08/15 07:18:16;;;;;;;15.00;8.97;;;24.30;99.90;;;;;;5004405;28;20993;-69
2021/08/15 07:20:41;;;;;;;9.13;7.80;;;24.30;99.90;;;;;;5015945;28;20514;-70
2021/08/15 07:23:08;;;;;;;8.50;7.30;;;24.40;99.90;;;;;;5005293;28;20828;-70
2021/08/15 07:25:34;;;;;;;9.00;7.00;;;24.30;99.90;;;;;;5005684;28;20189;-70
2021/08/15 07:28:01;;;;;;;7.80;7.10;;;24.40;99.90;;;;;;5005151;28;20996;-69
2021/08/15 07:30:32;;;;;;;8.87;7.97;;;24.50;99.90;;;;;;5006053;28;20200;-70
2021/08/15 07:33:01;;;;;;;8.37;7.47;;;24.60;99.90;;;;;;5006391;28;20478;-70
2021/08/15 07:35:28;;;;;;;8.53;7.57;;;24.60;99.90;;;;;;5002618;28;20506;-70
2021/08/15 07:37:54;;;;;;;10.70;7.40;;;24.50;99.90;;;;;;5007338;28;21004;-70
2021/08/15 07:40:20;;;;;;;9.30;7.40;;;24.60;99.90;;;;;;5005764;28;20471;-71
2021/08/15 07:42:50;;;;;;;7.87;7.07;;;24.60;99.90;;;;;;5004555;28;20204;-70
2021/08/15 07:45:16;;;;;;;7.67;6.90;;;24.60;99.90;;;;;;5005337;28;20600;-71
2021/08/15 07:47:42;;;;;;;8.10;7.17;;;24.70;99.90;;;;;;5004582;28;20790;-71
2021/08/15 07:50:08;;;;;;;7.50;6.70;;;24.80;99.90;;;;;;5004624;28;20503;-71
2021/08/15 07:52:34;;;;;;;8.17;7.37;;;24.90;99.90;;;;;;5006435;28;20877;-70
2021/08/15 07:55:00;;;;;;;10.80;7.10;;;25.00;99.90;;;;;;5002167;28;20448;-70
2021/08/15 07:57:26;;;;;;;10.63;6.87;;;24.90;99.90;;;;;;5005756;28;20197;-70
2021/08/15 07:59:55;;;;;;;8.77;7.03;;;24.90;99.90;;;;;;5004158;28;20221;-66
2021/08/15 08:02:21;;;;;;;7.10;6.40;;;25.10;99.90;;;;;;5001379;28;20466;-65
2021/08/15 08:04:53;;;;;;;7.67;6.93;;;25.20;99.90;;;;;;5051801;28;20544;-66
2021/08/15 08:07:22;;;;;;;7.47;6.67;;;25.20;99.90;;;;;;5050579;28;20551;-66
2021/08/15 08:09:51;;;;;;;9.40;7.10;;;25.30;99.90;;;;;;5023555;28;20768;-64
2021/08/15 08:12:19;;;;;;;7.70;6.90;;;25.30;99.90;;;;;;5031734;28;20536;-68
2021/08/15 08:14:48;;;;;;;9.60;6.80;;;25.20;99.90;;;;;;5050105;28;20437;-68
2021/08/15 08:17:20;;;;;;;7.63;6.93;;;25.30;99.90;;;;;;5046819;28;20454;-69
2021/08/15 08:19:46;;;;;;;9.63;7.97;;;25.40;99.90;;;;;;5041503;28;20768;-69
2021/08/15 08:22:15;;;;;;;8.50;6.87;;;25.50;99.90;;;;;;5045547;28;20448;-69
2021/08/15 08:24:41;;;;;;;8.40;6.90;;;25.50;99.90;;;;;;5049176;28;20216;-69
2021/08/15 08:27:06;;;;;;;9.00;7.73;;;25.60;99.90;;;;;;5061771;28;20437;-69
2021/08/15 08:29:32;;;;;;;10.40;8.50;;;25.70;99.90;;;;;;5044307;28;21043;-70
2021/08/15 08:31:58;;;;;;;13.50;8.57;;;25.70;99.90;;;;;;5046335;28;20191;-73
2021/08/15 08:34:24;;;;;;;9.07;8.17;;;25.80;99.90;;;;;;5045948;28;20195;-73
2021/08/15 08:36:49;;;;;;;8.80;8.00;;;25.70;99.90;;;;;;5044656;28;21210;-73
2021/08/15 08:39:15;;;;;;;8.07;7.07;;;25.80;99.90;;;;;;5041076;28;20234;-74
2021/08/15 08:41:41;;;;;;;8.27;7.47;;;26.00;99.90;;;;;;5046495;28;20221;-73
2021/08/15 08:44:08;;;;;;;7.80;7.10;;;26.00;99.90;;;;;;5051572;28;20211;-74
2021/08/15 08:46:34;;;;;;;8.40;7.60;;;26.00;99.90;;;;;;5048842;28;20434;-73
2021/08/15 08:48:59;;;;;;;8.70;7.87;;;26.10;99.90;;;;;;5047066;28;20493;-72
2021/08/15 08:51:25;;;;;;;10.10;7.50;;;26.10;99.90;;;;;;5037420;28;20993;-72
2021/08/15 08:53:53;;;;;;;8.23;7.43;;;26.20;99.90;;;;;;5044882;28;20187;-69
2021/08/15 08:56:22;;;;;;;8.30;7.50;;;26.30;99.90;;;;;;5049625;28;20194;-69
2021/08/15 08:58:50;;;;;;;9.27;8.37;;;26.30;99.90;;;;;;5038844;28;20473;-69
2021/08/15 09:01:18;;;;;;;8.50;7.57;;;26.30;99.90;;;;;;5044001;28;20446;-69
2021/08/15 09:04:10;;;;;;;9.70;8.17;;;26.40;99.90;;;;;;5048123;28;20482;-70
2021/08/15 09:07:07;;;;;;;8.10;7.30;;;26.40;99.90;;;;;;5041160;28;20453;-67
2021/08/15 09:09:37;;;;;;;9.20;8.30;;;26.50;99.90;;;;;;5052376;28;20510;-67
2021/08/15 09:12:04;;;;;;;9.07;7.97;;;26.60;99.90;;;;;;5045257;28;20434;-68
2021/08/15 09:14:31;;;;;;;9.60;8.60;;;26.70;99.90;;;;;;5042430;28;20476;-67
2021/08/15 09:17:04;;;;;;;8.23;7.50;;;26.70;99.90;;;;;;5026837;28;20651;-67
2021/08/15 09:19:42;;;;;;;8.13;7.33;;;26.80;99.90;;;;;;5036901;28;20549;-67
2021/08/15 09:22:24;;;;;;;9.70;7.87;;;27.00;99.90;;;;;;5031837;28;20565;-67
2021/08/15 09:24:55;;;;;;;8.43;7.50;;;27.10;99.90;;;;;;5029694;28;20880;-67
2021/08/15 09:27:23;;;;;;;8.00;7.20;;;27.20;99.90;;;;;;5049877;28;20963;-66
2021/08/15 09:30:05;;;;;;;8.03;7.30;;;27.10;99.90;;;;;;5031704;28;20668;-66
2021/08/15 09:32:31;;;;;;;9.87;7.80;;;27.10;99.90;;;;;;5034640;28;20443;-67
2021/08/15 09:35:01;;;;;;;9.57;7.63;;;27.30;99.90;;;;;;5035246;28;20791;-67
2021/08/15 09:37:33;;;;;;;8.73;7.83;;;27.40;99.90;;;;;;5030679;28;20442;-65
2021/08/15 09:39:58;;;;;;;8.17;6.63;;;27.60;99.90;;;;;;5033514;28;21223;-66
2021/08/15 09:42:44;;;;;;;7.83;7.00;;;27.70;99.90;;;;;;5028960;28;20529;-66
2021/08/15 09:45:15;;;;;;;8.23;7.43;;;27.90;99.90;;;;;;5030232;28;20193;-65
2021/08/15 09:47:41;;;;;;;9.53;8.17;;;28.00;99.90;;;;;;5036384;28;21279;-66
2021/08/15 09:50:19;;;;;;;8.90;8.00;;;27.90;99.90;;;;;;5000814;28;20528;-65
2021/08/15 09:52:45;;;;;;;7.60;6.90;;;27.90;99.90;;;;;;5030117;28;20439;-69
2021/08/15 09:55:12;;;;;;;8.90;8.00;;;27.90;99.90;;;;;;5036179;28;20720;-69
2021/08/15 09:57:39;;;;;;;9.07;7.43;;;28.10;99.90;;;;;;5028858;28;20449;-69
2021/08/15 10:00:26;;;;;;;8.77;7.70;;;28.20;99.90;;;;;;5031370;28;21008;-66
2021/08/15 10:02:52;;;;;;;8.20;7.30;;;28.20;99.90;;;;;;5031443;28;20471;-67
2021/08/15 10:05:20;;;;;;;7.73;6.93;;;28.00;99.90;;;;;;5030034;28;20765;-67
2021/08/15 10:07:46;;;;;;;8.27;7.00;;;28.00;99.90;;;;;;5029794;28;20474;-67
2021/08/15 10:10:14;;;;;;;8.40;7.17;;;28.00;99.90;;;;;;5032244;28;20419;-67
2021/08/15 10:12:40;;;;;;;7.77;6.57;;;27.90;99.90;;;;;;5015024;28;20506;-67
2021/08/15 10:15:15;;;;;;;8.97;7.10;;;27.90;99.90;;;;;;5036764;28;20435;-67
2021/08/15 10:17:46;;;;;;;9.00;7.60;;;28.10;99.90;;;;;;5031910;28;20453;-67
2021/08/15 10:20:18;;;;;;;7.13;6.43;;;28.20;99.90;;;;;;5028620;28;20885;-67
2021/08/15 10:22:46;;;;;;;8.00;7.20;;;28.50;99.90;;;;;;5016025;28;20511;-67
2021/08/15 10:25:34;;;;;;;10.87;7.37;;;28.70;99.90;;;;;;5034298;28;20522;-67
2021/08/15 10:28:00;;;;;;;10.33;7.20;;;28.80;99.90;;;;;;5030131;28;20434;-67
2021/08/15 10:30:32;;;;;;;7.73;6.70;;;28.80;99.90;;;;;;5024781;28;20459;-69
2021/08/15 10:32:57;;;;;;;7.90;6.97;;;28.80;99.90;;;;;;5035431;28;20643;-69
2021/08/15 10:35:28;;;;;;;9.13;8.33;;;28.80;99.90;;;;;;5029040;28;20555;-69
2021/08/15 10:38:08;;;;;;;7.90;7.20;;;28.70;99.90;;;;;;5022893;28;20188;-69
2021/08/15 10:43:13;;;;;;;7.63;6.87;;;28.70;99.90;;;;;;5030624;28;20463;-72
2021/08/15 10:45:40;;;;;;;15.93;7.20;;;28.70;99.90;;;;;;5029180;28;21108;-72
2021/08/15 10:48:11;;;;;;;7.50;6.70;;;28.80;99.90;;;;;;5028275;28;20482;-72
2021/08/15 10:50:42;;;;;;;8.20;7.40;;;28.80;99.90;;;;;;5028880;28;20426;-72
2021/08/15 10:53:26;;;;;;;7.57;6.87;;;28.80;99.90;;;;;;5024828;28;20434;-72
2021/08/15 10:56:02;;;;;;;7.47;6.77;;;28.80;99.90;;;;;;5028236;28;20492;-72
2021/08/15 10:58:37;;;;;;;8.07;7.30;;;28.80;99.90;;;;;;5033031;28;20473;-71
2021/08/15 11:01:04;;;;;;;8.03;7.23;;;28.90;99.90;;;;;;5029557;28;20888;-72
2021/08/15 11:03:32;;;;;;;7.73;6.97;;;28.90;99.90;;;;;;5031717;28;20562;-72
2021/08/15 11:05:59;;;;;;;7.70;6.60;;;28.90;99.90;;;;;;5033687;28;20949;-72
2021/08/15 11:08:33;;;;;;;7.97;7.17;;;28.90;99.90;;;;;;5030391;28;20447;-71
2021/08/15 11:11:19;;;;;;;6.93;6.23;;;29.00;99.90;;;;;;5029857;28;20426;-72
2021/08/15 11:13:45;;;;;;;8.23;7.50;;;29.00;99.90;;;;;;5030040;28;20951;-72
2021/08/15 11:16:25;;;;;;;7.70;7.00;;;29.00;99.90;;;;;;5031313;28;20937;-71
2021/08/15 11:19:12;;;;;;;8.53;7.03;;;29.00;99.90;;;;;;5038347;28;20286;-72
2021/08/15 11:22:13;;;;;;;8.63;7.77;;;29.00;99.90;;;;;;5031714;28;20841;-72
2021/08/15 11:24:46;;;;;;;7.90;7.20;;;29.10;99.90;;;;;;5028987;28;21056;-72
2021/08/15 11:27:14;;;;;;;8.77;7.90;;;29.10;99.90;;;;;;5031864;28;20443;-73
2021/08/15 11:29:41;;;;;;;8.83;8.03;;;29.20;99.90;;;;;;5028844;28;21012;-72
2021/08/15 11:32:17;;;;;;;8.53;7.73;;;29.20;99.90;;;;;;5027273;28;20493;-72
2021/08/15 11:35:00;;;;;;;8.27;7.47;;;29.30;99.90;;;;;;5028220;28;20461;-72
2021/08/15 11:37:35;;;;;;;8.00;6.83;;;29.50;99.90;;;;;;5025825;28;20422;-72
2021/08/15 11:40:14;;;;;;;7.80;7.00;;;29.50;99.90;;;;;;5018471;28;20491;-71
2021/08/15 11:42:41;;;;;;;10.00;7.20;;;29.60;99.90;;;;;;5034066;28;20409;-71
2021/08/15 11:45:08;;;;;;;7.10;6.50;;;29.70;99.90;;;;;;5032885;28;20397;-70
2021/08/15 11:47:39;;;;;;;8.93;7.00;;;29.60;99.90;;;;;;5030315;28;20931;-73
2021/08/15 11:50:20;;;;;;;8.90;7.97;;;29.60;99.90;;;;;;5032668;28;20487;-72
2021/08/15 11:52:47;;;;;;;7.83;6.30;;;29.70;99.90;;;;;;5031662;28;20456;-73
2021/08/15 11:55:28;;;;;;;9.33;7.23;;;29.70;99.90;;;;;;5029984;28;20423;-70
2021/08/15 11:57:56;;;;;;;7.93;6.63;;;29.80;99.90;;;;;;5029537;28;20424;-71
2021/08/15 12:00:42;;;;;;;6.53;5.87;;;29.80;99.90;;;;;;5030558;28;20751;-71
2021/08/15 12:03:27;;;;;;;7.63;6.43;;;29.80;99.90;;;;;;5028674;28;20925;-71
2021/08/15 12:05:56;;;;;;;8.10;7.30;;;29.80;99.90;;;;;;5030739;28;20447;-73
2021/08/15 12:08:43;;;;;;;8.00;7.20;;;30.00;99.90;;;;;;5029410;28;20439;-74
2021/08/15 12:11:28;;;;;;;6.80;5.90;;;30.00;99.90;;;;;;5026072;28;21181;-74
2021/08/15 12:14:09;;;;;;;11.43;7.10;;;30.20;99.90;;;;;;5027084;28;20413;-71
2021/08/15 12:16:36;;;;;;;7.70;6.57;;;30.40;99.90;;;;;;5033292;28;20411;-72
2021/08/15 12:19:06;;;;;;;9.57;7.17;;;30.50;99.90;;;;;;5029180;28;20542;-71
2021/08/15 12:21:33;;;;;;;6.70;6.10;;;30.70;99.90;;;;;;5035907;28;20427;-72
2021/08/15 12:24:12;;;;;;;8.87;6.77;;;30.90;99.90;;;;;;5032225;28;20533;-73
2021/08/15 12:26:43;;;;;;;7.10;6.00;;;31.00;99.90;;;;;;5029953;28;20954;-63
2021/08/15 12:29:14;;;;;;;9.60;7.13;;;31.20;99.90;;;;;;5030342;28;20433;-62
2021/08/15 12:31:40;;;;;;;8.53;5.97;;;31.40;99.90;;;;;;5029367;28;20798;-65
2021/08/15 12:34:09;;;;;;;8.57;6.50;;;31.50;99.70;;;;;;5023193;28;20426;-66
2021/08/15 12:36:40;;;;;;;7.13;6.43;;;31.50;99.80;;;;;;5026439;28;20246;-66
2021/08/15 12:39:07;;;;;;;13.30;7.50;;;31.40;99.50;;;;;;5019582;28;20451;-65
2021/08/15 12:41:54;;;;;;;6.93;6.20;;;31.40;99.10;;;;;;5027682;28;20404;-65
2021/08/15 12:44:26;;;;;;;7.47;6.50;;;31.60;98.80;;;;;;5037769;28;20429;-66
2021/08/15 12:47:09;;;;;;;6.93;6.33;;;31.70;98.90;;;;;;5027979;28;20437;-66
2021/08/15 12:49:36;;;;;;;7.53;6.60;;;31.70;99.00;;;;;;5028272;28;20988;-65